createdAt,value
2018-05-17T00:01:26.341Z,13.73
2018-05-17T00:04:00.231Z,13.37
2018-05-17T00:06:30.933Z,14.27
2018-05-17T00:09:08.873Z,17.20
2018-05-17T00:11:38.940Z,22.40
2018-05-17T00:14:08.188Z,29.73
2018-05-17T00:16:38.754Z,27.77
2018-05-17T00:19:08.069Z,25.50
2018-05-17T00:21:38.504Z,24.57
2018-05-17T00:24:14.073Z,22.50
2018-05-17T00:26:44.504Z,24.50
2018-05-17T00:32:03.588Z,32.00
2018-05-17T00:34:32.813Z,31.60
2018-05-17T00:37:08.397Z,30.90
2018-05-17T00:39:40.855Z,31.27
2018-05-17T00:42:11.902Z,32.13
2018-05-17T00:44:41.714Z,31.17
2018-05-17T00:47:11.017Z,29.00
2018-05-17T00:49:40.728Z,32.63
2018-05-17T00:52:09.899Z,31.20
2018-05-17T00:54:38.943Z,32.23
2018-05-17T00:57:08.130Z,32.90
2018-05-17T00:59:37.207Z,30.40
2018-05-17T01:02:06.462Z,35.70
2018-05-17T01:04:35.639Z,33.57
2018-05-17T01:07:05.826Z,36.43
2018-05-17T01:09:34.965Z,33.37
2018-05-17T01:12:14.400Z,36.47
2018-05-17T01:14:44.726Z,35.03
2018-05-17T01:17:14.605Z,35.63
2018-05-17T01:19:44.610Z,36.77
2018-05-17T01:22:28.305Z,37.90
2018-05-17T01:24:58.741Z,42.87
2018-05-17T01:27:29.580Z,45.30
2018-05-17T01:30:25.058Z,48.20
2018-05-17T01:32:54.984Z,44.23
2018-05-17T01:35:25.351Z,43.87
2018-05-17T01:38:09.643Z,48.37
2018-05-17T01:40:43.592Z,46.17
2018-05-17T01:43:17.657Z,50.47
2018-05-17T01:45:56.742Z,50.87
2018-05-17T01:48:32.926Z,52.17
2018-05-17T01:51:30.959Z,55.17
2018-05-17T01:54:10.105Z,58.33
2018-05-17T01:56:39.362Z,52.53
2018-05-17T01:59:09.002Z,54.73
2018-05-17T02:01:38.409Z,51.87
2018-05-17T02:04:08.600Z,48.93
2018-05-17T02:06:39.040Z,53.80
2018-05-17T02:09:08.782Z,48.97
2018-05-17T02:14:18.130Z,47.57
2018-05-17T02:16:53.438Z,48.20
2018-05-17T02:19:27.404Z,48.93
2018-05-17T02:27:18.714Z,50.30
2018-05-17T02:35:10.791Z,54.20
2018-05-17T02:37:47.849Z,58.97
2018-05-17T02:42:57.447Z,58.77
2018-05-17T02:45:31.075Z,64.57
2018-05-17T02:48:07.687Z,68.23
2018-05-17T02:50:37.443Z,65.67
2018-05-17T02:53:14.232Z,60.93
2018-05-17T02:56:10.046Z,59.37
2018-05-17T03:16:25.654Z,56.13
2018-05-17T03:18:56.951Z,68.20
2018-05-17T03:21:28.021Z,74.80
2018-05-17T03:24:13.623Z,77.17
2018-05-17T03:26:46.218Z,77.13
2018-05-17T03:29:16.196Z,75.97
2018-05-17T03:31:47.655Z,77.03
2018-05-17T03:34:19.969Z,77.27
2018-05-17T03:36:49.443Z,79.33
2018-05-17T03:39:24.972Z,82.03
2018-05-17T03:41:59.465Z,88.67
2018-05-17T03:44:31.647Z,94.37
2018-05-17T03:47:01.177Z,94.80
2018-05-17T03:49:43.089Z,94.03
2018-05-17T03:52:12.455Z,93.10
2018-05-17T03:54:46.396Z,84.67
2018-05-17T03:57:16.657Z,81.93
2018-05-17T04:02:30.142Z,85.23
2018-05-17T04:05:10.768Z,82.23
2018-05-17T04:07:39.983Z,85.47
2018-05-17T04:10:09.159Z,85.37
2018-05-17T04:12:38.491Z,90.50
2018-05-17T04:15:07.808Z,86.90
2018-05-17T04:17:37.806Z,90.13
2018-05-17T04:20:08.465Z,87.40
2018-05-17T04:22:39.083Z,82.50
2018-05-17T04:25:13.969Z,75.37
2018-05-17T04:27:43.199Z,74.40
2018-05-17T04:30:12.813Z,76.03
2018-05-17T04:32:42.978Z,73.40
2018-05-17T04:35:14.931Z,67.90
2018-05-17T04:37:47.927Z,66.33
2018-05-17T04:40:17.947Z,67.57
2018-05-17T04:42:47.106Z,68.37
2018-05-17T04:45:19.637Z,68.80
2018-05-17T04:47:49.038Z,67.77
2018-05-17T04:50:18.307Z,68.73
2018-05-17T04:52:48.360Z,69.10
2018-05-17T04:55:19.203Z,63.77
2018-05-17T04:57:48.689Z,64.63
2018-05-17T05:00:18.740Z,64.17
2018-05-17T05:02:47.919Z,60.60
2018-05-17T05:05:18.114Z,65.43
2018-05-17T05:07:48.976Z,77.27
2018-05-17T05:10:18.811Z,78.57
2018-05-17T05:12:49.668Z,73.47
2018-05-17T05:15:19.826Z,74.37
2018-05-17T05:17:49.131Z,73.40
2018-05-17T05:20:18.437Z,88.03
2018-05-17T05:22:47.646Z,93.73
2018-05-17T05:25:19.029Z,102.33
2018-05-17T05:27:48.738Z,105.10
2018-05-17T05:30:18.621Z,106.13
2018-05-17T05:32:49.274Z,107.00
2018-05-17T05:35:18.762Z,105.33
2018-05-17T05:37:48.767Z,102.80
2018-05-17T05:40:18.370Z,97.60
2018-05-17T05:42:48.451Z,102.07
2018-05-17T05:45:25.093Z,100.00
2018-05-17T05:47:54.361Z,90.57
2018-05-17T05:50:24.570Z,95.47
2018-05-17T05:52:54.142Z,97.60
2018-05-17T05:55:24.315Z,90.17
2018-05-17T05:57:53.493Z,99.10
2018-05-17T06:00:22.827Z,103.43
2018-05-17T06:02:53.560Z,105.93
2018-05-17T06:05:22.774Z,107.47
2018-05-17T06:07:51.934Z,102.87
2018-05-17T06:10:21.884Z,97.27
2018-05-17T06:12:50.969Z,100.47
2018-05-17T06:15:20.121Z,104.03
2018-05-17T06:17:49.526Z,111.53
2018-05-17T06:20:19.459Z,102.27
2018-05-17T06:22:50.661Z,104.33
2018-05-17T06:25:19.840Z,100.97
2018-05-17T06:27:49.861Z,100.40
2018-05-17T06:30:19.073Z,99.57
2018-05-17T06:32:48.269Z,93.37
2018-05-17T06:35:17.568Z,102.07
2018-05-17T06:37:51.022Z,103.67
2018-05-17T06:40:20.324Z,100.83
2018-05-17T06:42:50.185Z,105.90
2018-05-17T06:45:19.552Z,105.43
2018-05-17T06:47:48.814Z,103.73
2018-05-17T06:50:18.005Z,99.80
2018-05-17T06:52:48.657Z,99.77
2018-05-17T06:55:18.550Z,97.47
2018-05-17T06:57:49.061Z,101.67
2018-05-17T07:00:18.330Z,96.13
2018-05-17T07:02:47.628Z,90.50
2018-05-17T07:05:19.439Z,93.50
2018-05-17T07:07:49.087Z,96.13
2018-05-17T07:10:18.411Z,95.47
2018-05-17T07:12:47.734Z,95.67
2018-05-17T07:15:18.021Z,94.90
2018-05-17T07:17:47.978Z,92.47
2018-05-17T07:20:17.241Z,99.57
2018-05-17T07:22:47.433Z,92.47
2018-05-17T07:25:16.738Z,100.50
2018-05-17T07:27:46.021Z,97.43
2018-05-17T07:30:16.161Z,95.50
2018-05-17T07:32:50.712Z,95.73
2018-05-17T07:35:19.887Z,89.97
2018-05-17T07:37:49.065Z,91.10
2018-05-17T07:40:18.109Z,84.40
2018-05-17T07:42:47.241Z,83.73
2018-05-17T07:45:16.320Z,92.60
2018-05-17T07:47:45.378Z,80.83
2018-05-17T07:50:14.457Z,77.50
2018-05-17T07:52:43.596Z,68.83
2018-05-17T07:55:12.674Z,69.90
2018-05-17T07:57:42.470Z,50.93
2018-05-17T08:00:11.926Z,46.03
2018-05-17T08:02:41.079Z,45.47
2018-05-17T08:05:10.188Z,49.70
2018-05-17T08:07:39.374Z,56.70
2018-05-17T08:10:08.481Z,62.60
2018-05-17T08:12:38.346Z,51.50
2018-05-17T08:15:07.482Z,45.17
2018-05-17T08:17:36.611Z,43.90
2018-05-17T08:20:05.710Z,37.23
2018-05-17T08:22:34.859Z,45.23
2018-05-17T08:25:03.954Z,43.43
2018-05-17T08:27:33.817Z,32.13
2018-05-17T08:30:03.046Z,23.13
2018-05-17T08:32:32.083Z,25.47
2018-05-17T08:35:01.167Z,24.83
2018-05-17T08:37:30.260Z,24.03
2018-05-17T08:39:59.321Z,25.00
2018-05-17T08:42:28.429Z,26.60
2018-05-17T08:44:58.528Z,26.20
2018-05-17T08:47:27.635Z,25.50
2018-05-17T08:49:57.571Z,27.37
2018-05-17T08:52:27.594Z,29.17
2018-05-17T08:54:56.778Z,26.47
2018-05-17T08:57:26.680Z,27.60
2018-05-17T08:59:56.477Z,24.93
2018-05-17T09:02:26.193Z,23.27
2018-05-17T09:04:55.279Z,26.30
2018-05-17T09:07:24.337Z,28.67
2018-05-17T09:09:53.470Z,27.97
2018-05-17T09:12:22.676Z,29.60
2018-05-17T09:14:51.783Z,31.40
2018-05-17T09:17:21.643Z,30.83
2018-05-17T09:19:50.697Z,30.07
2018-05-17T09:22:19.768Z,28.90
2018-05-17T09:24:48.806Z,29.63
2018-05-17T09:27:17.916Z,30.43
2018-05-17T09:29:47.108Z,31.33
2018-05-17T09:32:16.261Z,32.80
2018-05-17T09:34:46.135Z,36.07
2018-05-17T09:37:15.259Z,34.00
2018-05-17T09:39:44.349Z,33.53
2018-05-17T09:42:13.584Z,35.43
2018-05-17T09:44:42.661Z,38.90
2018-05-17T09:47:11.730Z,36.97
2018-05-17T09:49:40.762Z,32.40
2018-05-17T09:52:09.983Z,34.50
2018-05-17T09:54:39.278Z,36.53
2018-05-17T09:57:08.374Z,38.47
2018-05-17T09:59:37.561Z,41.50
2018-05-17T10:02:06.714Z,43.60
2018-05-17T10:04:36.164Z,45.50
2018-05-17T10:07:05.316Z,49.67
2018-05-17T10:09:34.405Z,51.97
2018-05-17T10:12:03.648Z,54.27
2018-05-17T10:14:32.730Z,51.00
2018-05-17T10:17:01.893Z,48.27
2018-05-17T10:19:30.960Z,44.70
2018-05-17T10:21:59.986Z,43.90
2018-05-17T10:24:29.095Z,44.07
2018-05-17T10:26:58.238Z,41.53
2018-05-17T10:29:27.423Z,41.80
2018-05-17T10:31:56.585Z,38.47
2018-05-17T10:34:25.700Z,40.73
2018-05-17T10:36:54.808Z,40.50
2018-05-17T10:39:24.699Z,41.40
2018-05-17T10:41:55.581Z,39.67
2018-05-17T10:44:24.624Z,40.43
2018-05-17T10:46:53.712Z,38.57
2018-05-17T10:49:22.805Z,38.97
2018-05-17T10:51:51.887Z,42.83
2018-05-17T10:54:20.928Z,40.17
2018-05-17T10:56:50.111Z,44.80
2018-05-17T10:59:19.204Z,41.80
2018-05-17T11:01:48.367Z,41.87
2018-05-17T11:04:17.429Z,44.33
2018-05-17T11:06:48.027Z,47.37
2018-05-17T11:09:17.140Z,45.23
2018-05-17T11:11:46.243Z,45.73
2018-05-17T11:14:15.321Z,46.70
2018-05-17T11:16:44.410Z,47.37
2018-05-17T11:19:13.672Z,70.53
2018-05-17T11:21:42.756Z,64.50
2018-05-17T11:24:11.941Z,67.73
2018-05-17T11:26:41.826Z,69.40
2018-05-17T11:29:10.916Z,76.40
2018-05-17T11:31:41.395Z,69.53
2018-05-17T11:34:10.646Z,64.50
2018-05-17T11:36:40.799Z,59.33
2018-05-17T11:39:09.968Z,55.40
2018-05-17T11:41:39.079Z,52.57
2018-05-17T11:44:08.369Z,49.93
2018-05-17T11:46:37.467Z,50.10
2018-05-17T11:49:06.684Z,48.17
2018-05-17T11:51:35.908Z,51.83
2018-05-17T11:54:05.147Z,51.53
2018-05-17T11:56:34.366Z,53.40
2018-05-17T11:59:04.553Z,50.93
2018-05-17T12:01:33.761Z,50.10
2018-05-17T12:04:03.562Z,50.90
2018-05-17T12:06:33.028Z,54.20
2018-05-17T12:09:03.479Z,55.83
2018-05-17T12:11:32.645Z,53.90
2018-05-17T12:14:01.922Z,51.43
2018-05-17T12:16:31.051Z,49.50
2018-05-17T12:19:00.233Z,48.13
2018-05-17T12:21:29.396Z,49.20
2018-05-17T12:23:59.281Z,51.50
2018-05-17T12:26:28.569Z,50.27
2018-05-17T12:28:57.968Z,53.90
2018-05-17T12:31:27.214Z,64.87
2018-05-17T12:33:56.739Z,76.33
2018-05-17T12:36:26.485Z,86.50
2018-05-17T12:38:55.806Z,95.53
2018-05-17T12:41:25.708Z,89.53
2018-05-17T12:43:54.885Z,84.23
2018-05-17T12:46:24.165Z,82.53
2018-05-17T12:48:54.126Z,79.63
2018-05-17T12:51:23.357Z,83.97
2018-05-17T12:53:53.103Z,89.67
2018-05-17T12:56:25.268Z,84.10
2018-05-17T12:58:55.527Z,84.87
2018-05-17T13:01:25.265Z,79.00
2018-05-17T13:03:54.749Z,78.53
2018-05-17T13:06:24.216Z,85.47
2018-05-17T13:08:56.174Z,81.53
2018-05-17T13:11:25.715Z,76.53
2018-05-17T13:13:55.608Z,82.03
2018-05-17T13:31:51.939Z,98.63
2018-05-17T13:34:27.564Z,93.87
2018-05-17T13:36:58.059Z,84.90
2018-05-17T13:45:36.058Z,89.23
2018-05-17T13:48:05.354Z,95.73
2018-05-17T13:50:36.731Z,89.07
2018-05-17T13:53:06.250Z,82.77
2018-05-17T13:55:35.549Z,87.63
2018-05-17T13:58:04.798Z,81.87
2018-05-17T14:00:33.933Z,83.23
2018-05-17T14:03:04.066Z,76.33
2018-05-17T14:05:33.902Z,78.13
2018-05-17T14:08:03.216Z,76.43
2018-05-17T14:10:32.468Z,74.33
2018-05-17T14:13:02.649Z,78.47
2018-05-17T14:15:32.587Z,75.60
2018-05-17T14:18:02.734Z,65.60
2018-05-17T14:20:33.016Z,53.60
2018-05-17T14:23:03.392Z,47.03
2018-05-17T14:25:33.770Z,42.70
2018-05-17T14:28:02.913Z,49.83
2018-05-17T14:30:32.138Z,44.43
2018-05-17T14:33:01.544Z,47.73
2018-05-17T14:35:35.468Z,49.10
2018-05-17T14:38:04.658Z,45.63
2018-05-17T14:40:41.818Z,42.20
2018-05-17T14:43:13.116Z,44.90
2018-05-17T14:46:14.865Z,45.20
2018-05-17T14:48:45.254Z,32.40
2018-05-17T14:51:17.384Z,34.87
2018-05-17T14:53:47.213Z,30.50
2018-05-17T14:56:17.451Z,30.17
2018-05-17T14:58:47.903Z,33.27
2018-05-17T15:03:51.880Z,35.97
2018-05-17T15:06:21.418Z,32.47
2018-05-17T15:08:50.861Z,30.50
2018-05-17T15:11:20.638Z,31.00
2018-05-17T15:13:51.548Z,30.93
2018-05-17T15:16:20.733Z,31.80
2018-05-17T15:18:50.036Z,32.00
2018-05-17T15:21:19.464Z,32.10
2018-05-17T15:23:48.670Z,33.87
2018-05-17T15:26:22.100Z,33.27
2018-05-17T15:29:03.511Z,31.43
2018-05-17T15:31:35.447Z,31.93
2018-05-17T15:37:00.821Z,32.17
2018-05-17T15:39:30.185Z,33.73
2018-05-17T15:42:01.527Z,36.90
2018-05-17T15:44:30.835Z,35.37
2018-05-17T15:47:12.697Z,35.73
2018-05-17T15:49:46.402Z,32.27
2018-05-17T15:52:21.880Z,30.53
2018-05-17T15:54:52.034Z,33.80
2018-05-17T15:57:22.163Z,32.57
2018-05-17T15:59:54.686Z,36.50
2018-05-17T16:02:30.217Z,36.97
2018-05-17T16:04:59.382Z,33.40
2018-05-17T16:07:39.151Z,30.80
2018-05-17T16:10:09.166Z,28.53
2018-05-17T16:12:43.531Z,26.93
2018-05-17T16:15:13.789Z,28.77
2018-05-17T16:17:44.564Z,29.00
2018-05-17T16:20:13.820Z,31.70
2018-05-17T16:22:57.367Z,30.70
2018-05-17T16:25:27.171Z,27.40
2018-05-17T16:27:59.437Z,29.13
2018-05-17T16:30:30.711Z,24.53
2018-05-17T16:33:02.167Z,23.03
2018-05-17T16:35:31.457Z,20.40
2018-05-17T16:40:49.497Z,20.07
2018-05-17T16:43:20.430Z,22.53
2018-05-17T16:45:53.682Z,22.10
2018-05-17T16:48:58.341Z,22.30
2018-05-17T16:51:33.569Z,23.63
2018-05-17T16:54:30.923Z,22.63
2018-05-17T16:57:01.082Z,22.03
2018-05-17T16:59:41.885Z,22.57
2018-05-17T17:02:11.682Z,22.03
2018-05-17T17:04:41.697Z,24.30
2018-05-17T17:07:11.019Z,21.47
2018-05-17T17:10:15.168Z,22.27
2018-05-17T17:12:45.390Z,21.67
2018-05-17T17:15:16.927Z,21.73
2018-05-17T17:17:46.841Z,23.67
2018-05-17T17:20:16.183Z,23.07
2018-05-17T17:25:29.633Z,22.27
2018-05-17T17:28:00.450Z,20.50
2018-05-17T17:30:30.853Z,21.33
2018-05-17T17:33:04.377Z,16.50
2018-05-17T17:35:34.043Z,15.27
2018-05-17T17:38:17.481Z,14.30
2018-05-17T17:53:56.078Z,17.80
2018-05-17T17:56:27.334Z,17.30
2018-05-17T17:59:12.201Z,16.20
2018-05-17T18:05:52.070Z,18.70
2018-05-17T18:14:16.346Z,18.07
2018-05-17T18:23:58.681Z,17.27
2018-05-17T18:37:00.598Z,16.73
2018-05-17T18:39:35.779Z,20.27
2018-05-17T18:42:08.734Z,20.77
2018-05-17T18:44:40.052Z,17.50
2018-05-17T18:47:11.742Z,17.80
2018-05-17T18:49:47.114Z,17.97
2018-05-17T18:52:21.176Z,21.63
2018-05-17T18:54:56.101Z,21.73
2018-05-17T18:57:25.600Z,23.67
2018-05-17T18:59:57.350Z,26.13
2018-05-17T19:02:27.946Z,25.53
2018-05-17T19:05:00.011Z,22.73
2018-05-17T19:07:33.758Z,23.17
2018-05-17T19:10:03.378Z,22.43
2018-05-17T19:12:32.752Z,24.20
2018-05-17T19:15:03.181Z,23.97
2018-05-17T19:17:32.503Z,22.37
2018-05-17T19:20:01.860Z,21.30
2018-05-17T19:22:38.571Z,22.13
2018-05-17T19:25:11.454Z,23.70
2018-05-17T19:27:45.068Z,22.13
2018-05-17T19:30:14.275Z,19.65
2018-05-17T19:32:43.558Z,19.20
2018-05-17T19:35:21.428Z,22.43
2018-05-17T19:37:51.277Z,22.90
2018-05-17T19:40:21.213Z,22.70
2018-05-17T19:42:51.663Z,21.95
2018-05-17T19:45:21.748Z,21.30
2018-05-17T19:47:55.133Z,22.58
2018-05-17T19:50:27.534Z,24.27
2018-05-17T19:52:57.721Z,24.40
2018-05-17T19:55:27.440Z,23.17
2018-05-17T19:57:57.230Z,24.45
2018-05-17T20:00:26.750Z,24.73
2018-05-17T20:03:14.292Z,22.60
2018-05-17T20:05:49.099Z,22.80
2018-05-17T20:08:19.116Z,23.85
2018-05-17T20:13:29.052Z,26.20
2018-05-17T20:19:30.346Z,28.37
2018-05-17T20:22:08.945Z,27.00
2018-05-17T20:24:41.708Z,27.07
2018-05-17T20:27:12.159Z,29.57
2018-05-17T20:29:42.447Z,27.97
2018-05-17T20:32:12.224Z,32.60
2018-05-17T20:34:48.996Z,27.73
2018-05-17T20:37:19.425Z,25.40
2018-05-17T20:39:49.450Z,26.77
2018-05-17T20:42:20.320Z,28.83
2018-05-17T20:44:50.252Z,26.37
2018-05-17T20:47:20.588Z,30.77
2018-05-17T20:49:54.700Z,28.10
2018-05-17T20:52:24.039Z,30.50
2018-05-17T20:54:53.892Z,31.57
2018-05-17T20:57:27.975Z,31.37
2018-05-17T21:00:29.925Z,31.63
2018-05-17T21:03:01.129Z,33.00
2018-05-17T21:05:33.296Z,32.97
2018-05-17T21:08:03.670Z,31.37
2018-05-17T21:10:36.831Z,32.83
2018-05-17T21:13:06.099Z,31.60
2018-05-17T21:15:40.385Z,31.17
2018-05-17T21:18:10.695Z,31.43
2018-05-17T21:20:41.955Z,33.37
2018-05-17T21:23:14.002Z,32.67
2018-05-17T21:25:47.963Z,33.90
2018-05-17T21:28:19.137Z,36.20
2018-05-17T21:30:50.176Z,32.97
2018-05-17T21:33:51.243Z,31.87
2018-05-17T21:36:51.515Z,33.07
2018-05-17T21:39:50.253Z,31.73
2018-05-17T21:42:24.700Z,31.93
2018-05-17T21:44:54.160Z,31.60
2018-05-17T21:47:31.581Z,31.77
2018-05-17T21:50:08.095Z,31.77
2018-05-17T21:55:42.446Z,34.63
2018-05-17T22:01:25.612Z,31.47
2018-05-17T22:03:59.658Z,33.33
2018-05-17T22:06:34.235Z,30.93
2018-05-17T22:09:04.078Z,32.70
2018-05-17T22:11:33.207Z,33.10
2018-05-17T22:14:03.338Z,32.37
2018-05-17T22:16:35.187Z,32.37
2018-05-17T22:19:06.248Z,32.20
2018-05-17T22:21:36.271Z,33.07
2018-05-17T22:24:06.526Z,33.10
2018-05-17T22:26:38.014Z,35.37
2018-05-17T22:29:07.609Z,33.37
2018-05-17T22:31:36.789Z,34.53
2018-05-17T22:34:06.878Z,33.43
2018-05-17T22:36:37.879Z,35.17
2018-05-17T22:39:13.422Z,35.80
2018-05-17T22:41:42.746Z,33.20
2018-05-17T22:44:47.180Z,34.17
2018-05-17T22:47:41.781Z,32.77
2018-05-17T22:50:12.267Z,33.17
2018-05-17T22:52:41.529Z,32.50
2018-05-17T22:55:11.612Z,32.23
2018-05-17T22:57:52.109Z,31.33
2018-05-17T23:00:21.901Z,32.73
2018-05-17T23:02:51.118Z,31.33
2018-05-17T23:05:23.304Z,32.00
2018-05-17T23:07:55.071Z,30.07
2018-05-17T23:13:09.464Z,28.33
2018-05-17T23:15:42.049Z,27.07
2018-05-17T23:18:13.017Z,27.43
2018-05-17T23:20:43.444Z,28.57
2018-05-17T23:23:12.853Z,28.13
2018-05-17T23:25:44.388Z,28.50
2018-05-17T23:28:14.606Z,31.03
2018-05-17T23:30:46.368Z,32.03
2018-05-17T23:33:16.194Z,33.23
2018-05-17T23:35:47.048Z,32.30
2018-05-17T23:38:16.253Z,31.87
2018-05-17T23:41:06.903Z,38.13
2018-05-17T23:43:36.158Z,36.63
2018-05-17T23:46:07.976Z,38.87
2018-05-17T23:48:37.589Z,40.33
2018-05-17T23:51:06.946Z,39.60
2018-05-17T23:53:36.266Z,42.53
2018-05-17T23:56:06.032Z,42.47
2018-05-17T23:58:36.060Z,43.03
